sensor_id;sensor_type;location;lat;lon;timestamp;temperature;humidity
12708;DHT22;6418;50.824;4.718;2024-02-21T00:01:15;8.40;99.90
12708;DHT22;6418;50.824;4.718;2024-02-21T00:03:42;8.40;99.90
12708;DHT22;6418;50.824;4.718;2024-02-21T00:06:09;8.50;99.90
12708;DHT22;6418;50.824;4.718;2024-02-21T00:08:36;8.40;99.90
12708;DHT22;6418;50.824;4.718;2024-02-21T00:11:03;8.40;99.90
12708;DHT22;6418;50.824;4.718;2024-02-21T00:13:31;8.50;99.90
12708;DHT22;6418;50.824;4.718;2024-02-21T00:16:00;8.50;99.90
12708;DHT22;6418;50.824;4.718;2024-02-21T00:18:27;8.50;99.90
12708;DHT22;6418;50.824;4.718;2024-02-21T00:20:54;8.50;99.90
12708;DHT22;6418;50.824;4.718;2024-02-21T00:23:21;8.50;99.90
12708;DHT22;6418;50.824;4.718;2024-02-21T00:25:48;8.50;99.90
12708;DHT22;6418;50.824;4.718;2024-02-21T00:28:15;8.50;99.90
12708;DHT22;6418;50.824;4.718;2024-02-21T00:30:43;8.50;99.90
12708;DHT22;6418;50.824;4.718;2024-02-21T00:33:10;8.50;99.90
12708;DHT22;6418;50.824;4.718;2024-02-21T00:35:37;8.50;99.90
12708;DHT22;6418;50.824;4.718;2024-02-21T00:38:04;8.50;99.90
12708;DHT22;6418;50.824;4.718;2024-02-21T00:40:31;8.50;99.90
12708;DHT22;6418;50.824;4.718;2024-02-21T00:42:58;8.50;99.90
12708;DHT22;6418;50.824;4.718;2024-02-21T00:45:25;8.50;99.90
12708;DHT22;6418;50.824;4.718;2024-02-21T00:47:53;8.50;99.90
12708;DHT22;6418;50.824;4.718;2024-02-21T00:50:20;8.50;99.90
12708;DHT22;6418;50.824;4.718;2024-02-21T00:52:47;8.50;99.90
12708;DHT22;6418;50.824;4.718;2024-02-21T00:55:14;8.50;99.90
12708;DHT22;6418;50.824;4.718;2024-02-21T00:57:41;8.50;99.90
12708;DHT22;6418;50.824;4.718;2024-02-21T01:00:09;8.50;99.90
12708;DHT22;6418;50.824;4.718;2024-02-21T01:02:36;8.50;99.90
12708;DHT22;6418;50.824;4.718;2024-02-21T01:05:04;8.50;99.90
12708;DHT22;6418;50.824;4.718;2024-02-21T01:07:31;8.50;99.90
12708;DHT22;6418;50.824;4.718;2024-02-21T01:09:58;8.50;99.90
12708;DHT22;6418;50.824;4.718;2024-02-21T01:12:25;8.50;99.90
12708;DHT22;6418;50.824;4.718;2024-02-21T01:14:52;8.40;99.90
12708;DHT22;6418;50.824;4.718;2024-02-21T01:17:19;8.40;99.90
12708;DHT22;6418;50.824;4.718;2024-02-21T01:19:46;8.40;99.90
12708;DHT22;6418;50.824;4.718;2024-02-21T01:22:14;8.40;99.90
12708;DHT22;6418;50.824;4.718;2024-02-21T01:24:41;8.40;99.90
12708;DHT22;6418;50.824;4.718;2024-02-21T01:27:08;8.40;99.90
12708;DHT22;6418;50.824;4.718;2024-02-21T01:29:35;8.40;99.90
12708;DHT22;6418;50.824;4.718;2024-02-21T01:32:02;8.40;99.90
12708;DHT22;6418;50.824;4.718;2024-02-21T01:34:29;8.40;99.90
12708;DHT22;6418;50.824;4.718;2024-02-21T01:36:56;8.40;99.90
12708;DHT22;6418;50.824;4.718;2024-02-21T01:39:24;8.40;99.90
12708;DHT22;6418;50.824;4.718;2024-02-21T01:41:51;8.40;99.90
12708;DHT22;6418;50.824;4.718;2024-02-21T01:44:18;8.50;99.90
12708;DHT22;6418;50.824;4.718;2024-02-21T01:46:45;8.40;99.90
12708;DHT22;6418;50.824;4.718;2024-02-21T01:49:12;8.40;99.90
12708;DHT22;6418;50.824;4.718;2024-02-21T01:51:39;8.40;99.90
12708;DHT22;6418;50.824;4.718;2024-02-21T01:54:07;8.40;99.90
12708;DHT22;6418;50.824;4.718;2024-02-21T01:56:35;8.40;99.90
12708;DHT22;6418;50.824;4.718;2024-02-21T01:59:02;8.40;99.90
12708;DHT22;6418;50.824;4.718;2024-02-21T02:01:29;8.40;99.90
12708;DHT22;6418;50.824;4.718;2024-02-21T02:03:57;8.40;99.90
12708;DHT22;6418;50.824;4.718;2024-02-21T02:06:25;8.40;99.90
12708;DHT22;6418;50.824;4.718;2024-02-21T02:08:53;8.40;99.90
12708;DHT22;6418;50.824;4.718;2024-02-21T02:11:20;8.40;99.90
12708;DHT22;6418;50.824;4.718;2024-02-21T02:13:48;8.40;99.90
12708;DHT22;6418;50.824;4.718;2024-02-21T02:16:15;8.30;99.90
12708;DHT22;6418;50.824;4.718;2024-02-21T02:18:42;8.40;99.90
12708;DHT22;6418;50.824;4.718;2024-02-21T02:21:13;8.30;99.90
12708;DHT22;6418;50.824;4.718;2024-02-21T02:23:47;8.30;99.90
12708;DHT22;6418;50.824;4.718;2024-02-21T02:26:14;8.30;99.90
12708;DHT22;6418;50.824;4.718;2024-02-21T02:28:41;8.30;99.90
12708;DHT22;6418;50.824;4.718;2024-02-21T02:31:07;8.30;99.90
12708;DHT22;6418;50.824;4.718;2024-02-21T02:33:34;8.30;99.90
12708;DHT22;6418;50.824;4.718;2024-02-21T02:36:01;8.30;99.90
12708;DHT22;6418;50.824;4.718;2024-02-21T02:38:28;8.30;99.90
12708;DHT22;6418;50.824;4.718;2024-02-21T02:40:56;8.30;99.90
12708;DHT22;6418;50.824;4.718;2024-02-21T02:43:23;8.30;99.90
12708;DHT22;6418;50.824;4.718;2024-02-21T02:45:50;8.30;99.90
12708;DHT22;6418;50.824;4.718;2024-02-21T02:48:17;8.30;99.90
12708;DHT22;6418;50.824;4.718;2024-02-21T02:50:45;8.30;99.90
12708;DHT22;6418;50.824;4.718;2024-02-21T02:53:12;8.30;99.90
12708;DHT22;6418;50.824;4.718;2024-02-21T02:55:39;8.30;99.90
12708;DHT22;6418;50.824;4.718;2024-02-21T02:58:07;8.30;99.90
12708;DHT22;6418;50.824;4.718;2024-02-21T03:00:34;8.30;99.90
12708;DHT22;6418;50.824;4.718;2024-02-21T03:03:02;8.30;99.90
12708;DHT22;6418;50.824;4.718;2024-02-21T03:05:30;8.30;99.90
12708;DHT22;6418;50.824;4.718;2024-02-21T03:07:57;8.30;99.90
12708;DHT22;6418;50.824;4.718;2024-02-21T03:10:24;8.30;99.90
12708;DHT22;6418;50.824;4.718;2024-02-21T03:12:51;8.30;99.90
12708;DHT22;6418;50.824;4.718;2024-02-21T03:15:20;8.30;99.90
12708;DHT22;6418;50.824;4.718;2024-02-21T03:17:47;8.30;99.90
12708;DHT22;6418;50.824;4.718;2024-02-21T03:20:15;8.30;99.90
12708;DHT22;6418;50.824;4.718;2024-02-21T03:22:42;8.30;99.90
12708;DHT22;6418;50.824;4.718;2024-02-21T03:25:09;8.30;99.90
12708;DHT22;6418;50.824;4.718;2024-02-21T03:27:36;8.30;99.90
12708;DHT22;6418;50.824;4.718;2024-02-21T03:30:04;8.30;99.90
12708;DHT22;6418;50.824;4.718;2024-02-21T03:32:32;8.30;99.90
12708;DHT22;6418;50.824;4.718;2024-02-21T03:34:59;8.30;99.90
12708;DHT22;6418;50.824;4.718;2024-02-21T03:37:26;8.30;99.90
12708;DHT22;6418;50.824;4.718;2024-02-21T03:39:53;8.30;99.90
12708;DHT22;6418;50.824;4.718;2024-02-21T03:42:20;8.30;99.90
12708;DHT22;6418;50.824;4.718;2024-02-21T03:44:47;8.30;99.90
12708;DHT22;6418;50.824;4.718;2024-02-21T03:47:14;8.30;99.90
12708;DHT22;6418;50.824;4.718;2024-02-21T03:49:42;8.30;99.90
12708;DHT22;6418;50.824;4.718;2024-02-21T03:52:09;8.30;99.90
12708;DHT22;6418;50.824;4.718;2024-02-21T03:54:36;8.30;99.90
12708;DHT22;6418;50.824;4.718;2024-02-21T03:57:05;8.30;99.90
12708;DHT22;6418;50.824;4.718;2024-02-21T03:59:32;8.30;99.90
12708;DHT22;6418;50.824;4.718;2024-02-21T04:01:58;8.30;99.90
12708;DHT22;6418;50.824;4.718;2024-02-21T04:04:26;8.30;99.90
12708;DHT22;6418;50.824;4.718;2024-02-21T04:06:54;8.30;99.90
12708;DHT22;6418;50.824;4.718;2024-02-21T04:09:21;8.30;99.90
12708;DHT22;6418;50.824;4.718;2024-02-21T04:11:48;8.30;99.90
12708;DHT22;6418;50.824;4.718;2024-02-21T04:14:15;8.30;99.90
12708;DHT22;6418;50.824;4.718;2024-02-21T04:16:41;8.30;99.90
12708;DHT22;6418;50.824;4.718;2024-02-21T04:19:08;8.30;99.90
12708;DHT22;6418;50.824;4.718;2024-02-21T04:21:35;8.20;99.90
12708;DHT22;6418;50.824;4.718;2024-02-21T04:24:04;8.30;99.90
12708;DHT22;6418;50.824;4.718;2024-02-21T04:26:31;8.20;99.90
12708;DHT22;6418;50.824;4.718;2024-02-21T04:28:58;8.20;99.90
12708;DHT22;6418;50.824;4.718;2024-02-21T04:31:25;8.20;99.90
12708;DHT22;6418;50.824;4.718;2024-02-21T04:33:51;8.20;99.90
12708;DHT22;6418;50.824;4.718;2024-02-21T04:36:18;8.20;99.90
12708;DHT22;6418;50.824;4.718;2024-02-21T04:38:45;8.20;99.90
12708;DHT22;6418;50.824;4.718;2024-02-21T04:41:14;8.20;99.90
12708;DHT22;6418;50.824;4.718;2024-02-21T04:43:40;8.20;99.90
12708;DHT22;6418;50.824;4.718;2024-02-21T04:46:07;8.20;99.90
12708;DHT22;6418;50.824;4.718;2024-02-21T04:48:35;8.20;99.90
12708;DHT22;6418;50.824;4.718;2024-02-21T04:51:02;8.20;99.90
12708;DHT22;6418;50.824;4.718;2024-02-21T04:53:29;8.20;99.90
12708;DHT22;6418;50.824;4.718;2024-02-21T04:55:56;8.20;99.90
12708;DHT22;6418;50.824;4.718;2024-02-21T04:58:24;8.20;99.90
12708;DHT22;6418;50.824;4.718;2024-02-21T05:00:51;8.20;99.90
12708;DHT22;6418;50.824;4.718;2024-02-21T05:03:19;8.20;99.90
12708;DHT22;6418;50.824;4.718;2024-02-21T05:05:45;8.20;99.90
12708;DHT22;6418;50.824;4.718;2024-02-21T05:08:12;8.20;99.90
12708;DHT22;6418;50.824;4.718;2024-02-21T05:10:39;8.20;99.90
12708;DHT22;6418;50.824;4.718;2024-02-21T05:13:06;8.20;99.90
12708;DHT22;6418;50.824;4.718;2024-02-21T05:15:34;8.20;99.90
12708;DHT22;6418;50.824;4.718;2024-02-21T05:18:01;8.20;99.90
12708;DHT22;6418;50.824;4.718;2024-02-21T05:20:28;8.20;99.90
12708;DHT22;6418;50.824;4.718;2024-02-21T05:22:55;8.20;99.90
12708;DHT22;6418;50.824;4.718;2024-02-21T05:25:22;8.20;99.90
12708;DHT22;6418;50.824;4.718;2024-02-21T05:27:51;8.20;99.90
12708;DHT22;6418;50.824;4.718;2024-02-21T05:30:19;8.20;99.90
12708;DHT22;6418;50.824;4.718;2024-02-21T05:32:47;8.20;99.90
12708;DHT22;6418;50.824;4.718;2024-02-21T05:35:14;8.20;99.90
12708;DHT22;6418;50.824;4.718;2024-02-21T05:37:41;8.20;99.90
12708;DHT22;6418;50.824;4.718;2024-02-21T05:40:09;8.20;99.90
12708;DHT22;6418;50.824;4.718;2024-02-21T05:42:38;8.20;99.90
12708;DHT22;6418;50.824;4.718;2024-02-21T05:45:06;8.20;99.90
12708;DHT22;6418;50.824;4.718;2024-02-21T05:47:32;8.20;99.90
12708;DHT22;6418;50.824;4.718;2024-02-21T05:50:01;8.20;99.90
12708;DHT22;6418;50.824;4.718;2024-02-21T05:52:28;8.20;99.90
12708;DHT22;6418;50.824;4.718;2024-02-21T05:54:55;8.20;99.90
12708;DHT22;6418;50.824;4.718;2024-02-21T05:57:21;8.10;99.90
12708;DHT22;6418;50.824;4.718;2024-02-21T05:59:48;8.20;99.90
12708;DHT22;6418;50.824;4.718;2024-02-21T06:02:15;8.20;99.90
12708;DHT22;6418;50.824;4.718;2024-02-21T06:04:42;8.20;99.90
12708;DHT22;6418;50.824;4.718;2024-02-21T06:07:11;8.20;99.90
12708;DHT22;6418;50.824;4.718;2024-02-21T06:09:38;8.20;99.90
12708;DHT22;6418;50.824;4.718;2024-02-21T06:12:05;8.20;99.90
12708;DHT22;6418;50.824;4.718;2024-02-21T06:14:32;8.20;99.90
12708;DHT22;6418;50.824;4.718;2024-02-21T06:16:59;8.20;99.90
12708;DHT22;6418;50.824;4.718;2024-02-21T06:19:26;8.20;99.90
12708;DHT22;6418;50.824;4.718;2024-02-21T06:21:52;8.10;99.90
12708;DHT22;6418;50.824;4.718;2024-02-21T06:24:21;8.20;99.90
12708;DHT22;6418;50.824;4.718;2024-02-21T06:26:48;8.20;99.90
12708;DHT22;6418;50.824;4.718;2024-02-21T06:29:15;8.20;99.90
12708;DHT22;6418;50.824;4.718;2024-02-21T06:31:42;8.10;99.90
12708;DHT22;6418;50.824;4.718;2024-02-21T06:34:09;8.20;99.90
12708;DHT22;6418;50.824;4.718;2024-02-21T06:36:35;8.20;99.90
12708;DHT22;6418;50.824;4.718;2024-02-21T06:39:02;8.10;99.90
12708;DHT22;6418;50.824;4.718;2024-02-21T06:41:34;8.10;99.90
12708;DHT22;6418;50.824;4.718;2024-02-21T06:44:01;8.10;99.90
12708;DHT22;6418;50.824;4.718;2024-02-21T06:46:29;8.20;99.90
12708;DHT22;6418;50.824;4.718;2024-02-21T06:48:56;8.10;99.90
12708;DHT22;6418;50.824;4.718;2024-02-21T06:51:23;8.20;99.90
12708;DHT22;6418;50.824;4.718;2024-02-21T06:53:51;8.20;99.90
12708;DHT22;6418;50.824;4.718;2024-02-21T06:56:18;8.20;99.90
12708;DHT22;6418;50.824;4.718;2024-02-21T06:58:46;8.10;99.90
12708;DHT22;6418;50.824;4.718;2024-02-21T07:01:13;8.10;99.90
12708;DHT22;6418;50.824;4.718;2024-02-21T07:03:40;8.10;99.90
12708;DHT22;6418;50.824;4.718;2024-02-21T07:06:07;8.10;99.90
12708;DHT22;6418;50.824;4.718;2024-02-21T07:08:33;8.10;99.90
12708;DHT22;6418;50.824;4.718;2024-02-21T07:11:00;8.10;99.90
12708;DHT22;6418;50.824;4.718;2024-02-21T07:13:27;8.10;99.90
12708;DHT22;6418;50.824;4.718;2024-02-21T07:15:57;8.10;99.90
12708;DHT22;6418;50.824;4.718;2024-02-21T07:18:24;8.10;99.90
12708;DHT22;6418;50.824;4.718;2024-02-21T07:20:51;8.00;99.90
12708;DHT22;6418;50.824;4.718;2024-02-21T07:23:18;8.10;99.90
12708;DHT22;6418;50.824;4.718;2024-02-21T07:25:45;8.10;99.90
12708;DHT22;6418;50.824;4.718;2024-02-21T07:28:12;8.10;99.90
12708;DHT22;6418;50.824;4.718;2024-02-21T07:30:39;8.10;99.90
12708;DHT22;6418;50.824;4.718;2024-02-21T07:33:08;8.00;99.90
12708;DHT22;6418;50.824;4.718;2024-02-21T07:35:35;8.00;99.90
12708;DHT22;6418;50.824;4.718;2024-02-21T07:38:03;8.10;99.90
12708;DHT22;6418;50.824;4.718;2024-02-21T07:40:30;8.00;99.90
12708;DHT22;6418;50.824;4.718;2024-02-21T07:42:57;8.00;99.90
12708;DHT22;6418;50.824;4.718;2024-02-21T07:45:24;8.00;99.90
12708;DHT22;6418;50.824;4.718;2024-02-21T07:47:52;8.10;99.90
12708;DHT22;6418;50.824;4.718;2024-02-21T07:50:20;8.10;99.90
12708;DHT22;6418;50.824;4.718;2024-02-21T07:52:47;8.00;99.90
12708;DHT22;6418;50.824;4.718;2024-02-21T07:55:14;8.00;99.90
12708;DHT22;6418;50.824;4.718;2024-02-21T07:57:41;8.10;99.90
12708;DHT22;6418;50.824;4.718;2024-02-21T08:00:08;8.10;99.90
12708;DHT22;6418;50.824;4.718;2024-02-21T08:02:40;8.10;99.90
12708;DHT22;6418;50.824;4.718;2024-02-21T08:05:09;8.10;99.90
12708;DHT22;6418;50.824;4.718;2024-02-21T08:07:39;8.00;99.90
12708;DHT22;6418;50.824;4.718;2024-02-21T08:10:07;8.10;99.90
12708;DHT22;6418;50.824;4.718;2024-02-21T08:12:34;8.10;99.90
12708;DHT22;6418;50.824;4.718;2024-02-21T08:15:01;8.10;99.90
12708;DHT22;6418;50.824;4.718;2024-02-21T08:17:29;8.10;99.90
12708;DHT22;6418;50.824;4.718;2024-02-21T08:19:55;8.10;99.90
12708;DHT22;6418;50.824;4.718;2024-02-21T08:22:22;8.10;99.90
12708;DHT22;6418;50.824;4.718;2024-02-21T08:24:51;8.10;99.90
12708;DHT22;6418;50.824;4.718;2024-02-21T08:27:18;8.10;99.90
12708;DHT22;6418;50.824;4.718;2024-02-21T08:29:45;8.10;99.90
12708;DHT22;6418;50.824;4.718;2024-02-21T08:32:11;8.20;99.90
12708;DHT22;6418;50.824;4.718;2024-02-21T08:34:38;8.20;99.90
12708;DHT22;6418;50.824;4.718;2024-02-21T08:37:05;8.20;99.90
12708;DHT22;6418;50.824;4.718;2024-02-21T08:39:33;8.20;99.90
12708;DHT22;6418;50.824;4.718;2024-02-21T08:42:01;8.20;99.90
12708;DHT22;6418;50.824;4.718;2024-02-21T08:44:29;8.20;99.90
12708;DHT22;6418;50.824;4.718;2024-02-21T08:46:55;8.20;99.90
12708;DHT22;6418;50.824;4.718;2024-02-21T08:49:23;8.30;99.90
12708;DHT22;6418;50.824;4.718;2024-02-21T08:51:52;8.30;99.90
12708;DHT22;6418;50.824;4.718;2024-02-21T08:54:19;8.30;99.90
12708;DHT22;6418;50.824;4.718;2024-02-21T08:56:46;8.30;99.90
12708;DHT22;6418;50.824;4.718;2024-02-21T08:59:15;8.40;99.90
12708;DHT22;6418;50.824;4.718;2024-02-21T09:01:42;8.40;99.90
12708;DHT22;6418;50.824;4.718;2024-02-21T09:04:09;8.40;99.90
12708;DHT22;6418;50.824;4.718;2024-02-21T09:06:36;8.40;99.90
12708;DHT22;6418;50.824;4.718;2024-02-21T09:09:07;8.50;99.90
12708;DHT22;6418;50.824;4.718;2024-02-21T09:11:34;8.50;99.90
12708;DHT22;6418;50.824;4.718;2024-02-21T09:14:01;8.50;99.90
12708;DHT22;6418;50.824;4.718;2024-02-21T09:16:30;8.50;99.90
12708;DHT22;6418;50.824;4.718;2024-02-21T09:18:57;8.60;99.90
12708;DHT22;6418;50.824;4.718;2024-02-21T09:21:24;8.60;99.90
12708;DHT22;6418;50.824;4.718;2024-02-21T09:23:51;8.60;99.90
12708;DHT22;6418;50.824;4.718;2024-02-21T09:26:18;8.60;99.90
12708;DHT22;6418;50.824;4.718;2024-02-21T09:28:45;8.70;99.90
12708;DHT22;6418;50.824;4.718;2024-02-21T09:31:12;8.70;99.90
12708;DHT22;6418;50.824;4.718;2024-02-21T09:33:41;8.70;99.90
12708;DHT22;6418;50.824;4.718;2024-02-21T09:36:08;8.70;99.90
12708;DHT22;6418;50.824;4.718;2024-02-21T09:38:35;8.80;99.90
12708;DHT22;6418;50.824;4.718;2024-02-21T09:41:11;8.80;99.90
12708;DHT22;6418;50.824;4.718;2024-02-21T09:43:41;8.90;99.90
12708;DHT22;6418;50.824;4.718;2024-02-21T09:46:15;8.90;99.90
12708;DHT22;6418;50.824;4.718;2024-02-21T09:48:54;8.90;99.90
12708;DHT22;6418;50.824;4.718;2024-02-21T09:51:27;9.00;99.90
12708;DHT22;6418;50.824;4.718;2024-02-21T09:53:56;9.00;99.90
12708;DHT22;6418;50.824;4.718;2024-02-21T09:56:24;9.10;99.90
12708;DHT22;6418;50.824;4.718;2024-02-21T09:58:51;9.10;99.90
12708;DHT22;6418;50.824;4.718;2024-02-21T10:01:17;9.10;99.90
12708;DHT22;6418;50.824;4.718;2024-02-21T10:03:46;9.20;99.90
12708;DHT22;6418;50.824;4.718;2024-02-21T10:06:13;9.30;99.90
12708;DHT22;6418;50.824;4.718;2024-02-21T10:08:40;9.30;99.90
12708;DHT22;6418;50.824;4.718;2024-02-21T10:11:07;9.30;99.90
12708;DHT22;6418;50.824;4.718;2024-02-21T10:13:35;9.40;99.90
12708;DHT22;6418;50.824;4.718;2024-02-21T10:16:04;9.40;99.90
12708;DHT22;6418;50.824;4.718;2024-02-21T10:18:32;9.40;99.90
12708;DHT22;6418;50.824;4.718;2024-02-21T10:21:04;9.50;99.90
12708;DHT22;6418;50.824;4.718;2024-02-21T10:23:41;9.50;99.90
12708;DHT22;6418;50.824;4.718;2024-02-21T10:26:09;9.50;99.90
12708;DHT22;6418;50.824;4.718;2024-02-21T10:28:36;9.60;99.90
12708;DHT22;6418;50.824;4.718;2024-02-21T10:31:07;9.60;99.90
12708;DHT22;6418;50.824;4.718;2024-02-21T10:33:34;9.70;99.90
12708;DHT22;6418;50.824;4.718;2024-02-21T10:36:09;9.70;99.90
12708;DHT22;6418;50.824;4.718;2024-02-21T10:38:37;9.70;99.90
12708;DHT22;6418;50.824;4.718;2024-02-21T10:41:05;9.70;99.90
12708;DHT22;6418;50.824;4.718;2024-02-21T10:43:38;9.80;99.90
12708;DHT22;6418;50.824;4.718;2024-02-21T10:46:07;9.80;99.90
12708;DHT22;6418;50.824;4.718;2024-02-21T10:48:42;9.90;99.90
12708;DHT22;6418;50.824;4.718;2024-02-21T10:51:15;9.90;99.90
12708;DHT22;6418;50.824;4.718;2024-02-21T10:53:47;9.90;99.90
12708;DHT22;6418;50.824;4.718;2024-02-21T10:56:22;10.00;99.90
12708;DHT22;6418;50.824;4.718;2024-02-21T10:58:51;10.00;99.90
12708;DHT22;6418;50.824;4.718;2024-02-21T11:01:19;10.10;99.90
12708;DHT22;6418;50.824;4.718;2024-02-21T11:03:49;10.10;99.90
12708;DHT22;6418;50.824;4.718;2024-02-21T11:06:18;10.10;99.90
12708;DHT22;6418;50.824;4.718;2024-02-21T11:08:45;10.10;99.90
12708;DHT22;6418;50.824;4.718;2024-02-21T11:11:13;10.20;99.90
12708;DHT22;6418;50.824;4.718;2024-02-21T11:13:43;10.20;99.90
12708;DHT22;6418;50.824;4.718;2024-02-21T11:16:12;10.20;99.90
12708;DHT22;6418;50.824;4.718;2024-02-21T11:18:48;10.30;99.90
12708;DHT22;6418;50.824;4.718;2024-02-21T11:21:16;10.30;99.90
12708;DHT22;6418;50.824;4.718;2024-02-21T11:23:43;10.30;99.90
12708;DHT22;6418;50.824;4.718;2024-02-21T11:26:10;10.40;99.90
12708;DHT22;6418;50.824;4.718;2024-02-21T11:28:44;10.40;99.90
12708;DHT22;6418;50.824;4.718;2024-02-21T11:31:12;10.40;99.90
12708;DHT22;6418;50.824;4.718;2024-02-21T11:33:40;10.40;99.90
12708;DHT22;6418;50.824;4.718;2024-02-21T11:36:08;10.40;99.90
12708;DHT22;6418;50.824;4.718;2024-02-21T11:38:36;10.40;99.90
12708;DHT22;6418;50.824;4.718;2024-02-21T11:41:08;10.40;99.90
12708;DHT22;6418;50.824;4.718;2024-02-21T11:43:35;10.40;99.90
12708;DHT22;6418;50.824;4.718;2024-02-21T11:46:02;10.40;99.90
12708;DHT22;6418;50.824;4.718;2024-02-21T11:48:32;10.40;99.90
12708;DHT22;6418;50.824;4.718;2024-02-21T11:50:59;10.40;99.90
12708;DHT22;6418;50.824;4.718;2024-02-21T11:53:26;10.40;99.90
12708;DHT22;6418;50.824;4.718;2024-02-21T11:55:57;10.40;99.90
12708;DHT22;6418;50.824;4.718;2024-02-21T11:58:24;10.50;99.90
12708;DHT22;6418;50.824;4.718;2024-02-21T12:00:52;10.50;99.90
12708;DHT22;6418;50.824;4.718;2024-02-21T12:03:19;10.40;99.90
12708;DHT22;6418;50.824;4.718;2024-02-21T12:05:46;10.40;99.90
12708;DHT22;6418;50.824;4.718;2024-02-21T12:08:13;10.40;99.90
12708;DHT22;6418;50.824;4.718;2024-02-21T12:10:42;10.40;99.90
12708;DHT22;6418;50.824;4.718;2024-02-21T12:13:11;10.40;99.90
12708;DHT22;6418;50.824;4.718;2024-02-21T12:15:39;10.40;99.90
12708;DHT22;6418;50.824;4.718;2024-02-21T12:18:06;10.40;99.90
12708;DHT22;6418;50.824;4.718;2024-02-21T12:20:33;10.40;99.90
12708;DHT22;6418;50.824;4.718;2024-02-21T12:23:01;10.40;99.90
12708;DHT22;6418;50.824;4.718;2024-02-21T12:25:29;10.50;99.90
12708;DHT22;6418;50.824;4.718;2024-02-21T12:27:56;10.40;99.90
12708;DHT22;6418;50.824;4.718;2024-02-21T12:30:26;10.50;99.90
12708;DHT22;6418;50.824;4.718;2024-02-21T12:32:53;10.40;99.90
12708;DHT22;6418;50.824;4.718;2024-02-21T12:35:20;10.50;99.90
12708;DHT22;6418;50.824;4.718;2024-02-21T12:37:47;10.50;99.90
12708;DHT22;6418;50.824;4.718;2024-02-21T12:40:14;10.50;99.90
12708;DHT22;6418;50.824;4.718;2024-02-21T12:42:41;10.50;99.90
12708;DHT22;6418;50.824;4.718;2024-02-21T12:45:09;10.50;99.90
12708;DHT22;6418;50.824;4.718;2024-02-21T12:47:38;10.50;99.90
12708;DHT22;6418;50.824;4.718;2024-02-21T12:50:06;10.50;99.90
12708;DHT22;6418;50.824;4.718;2024-02-21T12:52:33;10.50;99.90
12708;DHT22;6418;50.824;4.718;2024-02-21T12:55:00;10.60;99.90
12708;DHT22;6418;50.824;4.718;2024-02-21T12:57:27;10.50;99.90
12708;DHT22;6418;50.824;4.718;2024-02-21T12:59:54;10.60;99.90
12708;DHT22;6418;50.824;4.718;2024-02-21T13:02:21;10.60;99.90
12708;DHT22;6418;50.824;4.718;2024-02-21T13:04:49;10.60;99.90
12708;DHT22;6418;50.824;4.718;2024-02-21T13:07:16;10.60;99.90
12708;DHT22;6418;50.824;4.718;2024-02-21T13:09:43;10.60;99.90
12708;DHT22;6418;50.824;4.718;2024-02-21T13:12:10;10.70;99.90
12708;DHT22;6418;50.824;4.718;2024-02-21T13:14:37;10.70;99.90
12708;DHT22;6418;50.824;4.718;2024-02-21T13:17:05;10.70;99.90
12708;DHT22;6418;50.824;4.718;2024-02-21T13:19:32;10.60;99.90
12708;DHT22;6418;50.824;4.718;2024-02-21T13:22:00;10.70;99.90
12708;DHT22;6418;50.824;4.718;2024-02-21T13:24:28;10.60;99.90
12708;DHT22;6418;50.824;4.718;2024-02-21T13:26:54;10.60;99.90
12708;DHT22;6418;50.824;4.718;2024-02-21T13:29:21;10.60;99.90
12708;DHT22;6418;50.824;4.718;2024-02-21T13:31:48;10.60;99.90
12708;DHT22;6418;50.824;4.718;2024-02-21T13:34:16;10.60;99.90
12708;DHT22;6418;50.824;4.718;2024-02-21T13:36:43;10.60;99.90
12708;DHT22;6418;50.824;4.718;2024-02-21T13:39:12;10.60;99.90
12708;DHT22;6418;50.824;4.718;2024-02-21T13:41:41;10.50;99.90
12708;DHT22;6418;50.824;4.718;2024-02-21T13:44:08;10.50;99.90
12708;DHT22;6418;50.824;4.718;2024-02-21T13:46:36;10.50;99.90
12708;DHT22;6418;50.824;4.718;2024-02-21T13:49:04;10.40;99.90
12708;DHT22;6418;50.824;4.718;2024-02-21T13:51:32;10.40;99.90
12708;DHT22;6418;50.824;4.718;2024-02-21T13:53:59;10.40;99.90
12708;DHT22;6418;50.824;4.718;2024-02-21T13:56:28;10.40;99.90
12708;DHT22;6418;50.824;4.718;2024-02-21T13:58:55;10.30;99.90
12708;DHT22;6418;50.824;4.718;2024-02-21T14:01:21;10.40;99.90
12708;DHT22;6418;50.824;4.718;2024-02-21T14:03:48;10.30;99.90
12708;DHT22;6418;50.824;4.718;2024-02-21T14:06:15;10.30;99.90
12708;DHT22;6418;50.824;4.718;2024-02-21T14:08:42;10.30;99.90
12708;DHT22;6418;50.824;4.718;2024-02-21T14:11:09;10.20;99.90
12708;DHT22;6418;50.824;4.718;2024-02-21T14:13:38;10.20;99.90
12708;DHT22;6418;50.824;4.718;2024-02-21T14:16:09;10.10;99.90
12708;DHT22;6418;50.824;4.718;2024-02-21T14:18:37;10.10;99.90
12708;DHT22;6418;50.824;4.718;2024-02-21T14:21:06;10.00;99.90
12708;DHT22;6418;50.824;4.718;2024-02-21T14:23:33;10.00;99.90
12708;DHT22;6418;50.824;4.718;2024-02-21T14:26:00;10.00;99.90
12708;DHT22;6418;50.824;4.718;2024-02-21T14:28:27;9.90;99.90
12708;DHT22;6418;50.824;4.718;2024-02-21T14:30:56;9.90;99.90
12708;DHT22;6418;50.824;4.718;2024-02-21T14:33:23;9.90;99.90
12708;DHT22;6418;50.824;4.718;2024-02-21T14:35:50;9.90;99.90
12708;DHT22;6418;50.824;4.718;2024-02-21T14:38:18;9.80;99.90
12708;DHT22;6418;50.824;4.718;2024-02-21T14:40:45;9.80;99.90
12708;DHT22;6418;50.824;4.718;2024-02-21T14:43:12;9.70;99.90
12708;DHT22;6418;50.824;4.718;2024-02-21T14:45:39;9.70;99.90
12708;DHT22;6418;50.824;4.718;2024-02-21T14:48:08;9.70;99.90
12708;DHT22;6418;50.824;4.718;2024-02-21T14:50:35;9.70;99.90
12708;DHT22;6418;50.824;4.718;2024-02-21T14:53:02;9.60;99.90
12708;DHT22;6418;50.824;4.718;2024-02-21T14:55:28;9.60;99.90
12708;DHT22;6418;50.824;4.718;2024-02-21T14:57:55;9.60;99.90
12708;DHT22;6418;50.824;4.718;2024-02-21T15:00:22;9.50;99.90
12708;DHT22;6418;50.824;4.718;2024-02-21T15:02:55;9.50;99.90
12708;DHT22;6418;50.824;4.718;2024-02-21T15:05:24;9.50;99.90
12708;DHT22;6418;50.824;4.718;2024-02-21T15:07:51;9.40;99.90
12708;DHT22;6418;50.824;4.718;2024-02-21T15:10:18;9.50;99.90
12708;DHT22;6418;50.824;4.718;2024-02-21T15:12:45;9.40;99.90
12708;DHT22;6418;50.824;4.718;2024-02-21T15:15:12;9.40;99.90
12708;DHT22;6418;50.824;4.718;2024-02-21T15:17:39;9.40;99.90
12708;DHT22;6418;50.824;4.718;2024-02-21T15:20:07;9.40;99.90
12708;DHT22;6418;50.824;4.718;2024-02-21T15:22:36;9.30;99.90
12708;DHT22;6418;50.824;4.718;2024-02-21T15:25:03;9.30;99.90
12708;DHT22;6418;50.824;4.718;2024-02-21T15:27:31;9.30;99.90
12708;DHT22;6418;50.824;4.718;2024-02-21T15:29:58;9.20;99.90
12708;DHT22;6418;50.824;4.718;2024-02-21T15:32:25;9.20;99.90
12708;DHT22;6418;50.824;4.718;2024-02-21T15:34:52;9.20;99.90
12708;DHT22;6418;50.824;4.718;2024-02-21T15:37:19;9.20;99.90
12708;DHT22;6418;50.824;4.718;2024-02-21T15:39:48;9.20;99.90
12708;DHT22;6418;50.824;4.718;2024-02-21T15:42:15;9.20;99.90
12708;DHT22;6418;50.824;4.718;2024-02-21T15:44:41;9.20;99.90
12708;DHT22;6418;50.824;4.718;2024-02-21T15:47:08;9.20;99.90
12708;DHT22;6418;50.824;4.718;2024-02-21T15:49:36;9.10;99.90
12708;DHT22;6418;50.824;4.718;2024-02-21T15:52:03;9.10;99.90
12708;DHT22;6418;50.824;4.718;2024-02-21T15:54:30;9.10;99.90
12708;DHT22;6418;50.824;4.718;2024-02-21T15:56:58;9.10;99.90
12708;DHT22;6418;50.824;4.718;2024-02-21T15:59:25;9.00;99.90